Arietta A — A8TZ2 — position and weather

sailwx.info

Track history (hours):
 
Tides and Currents Weather Stations Pressure Air Temp Water Temp Dewpoint Dewpoint Depression Visibility Wind Speed Wind Dir Waves Ship Positions

Arietta A

Last reported at 2017-Aug-24 22:15 UTC. Time now 2017-Sep-25 11:32 UTC.
Position N 28°59' E 032°48'.
Warning: this ship's position is 31 days out of date.

Length 189 m; draft 12.9 m.

Type: Cargo ship. MMSI: 636014460.

Date/timePositionNaut miles runAvg speedWind from/ knotsBaromVisibWave heightAir tempDewpointWater temp
2017-Aug-24 22:15N 28°59' E 032°48'313.3
2017-Aug-24 22:00N 29°03' E 032°47'138 6.0
2017-Aug-23 22:56N 31°19' E 032°22'7 0.9
2017-Aug-23 15:00N 31°24' E 032°18'204 9.5
2017-Aug-22 17:25N 33°56' E 029°34'511.6
2017-Aug-22 17:00N 33°59' E 029°31'611.5
2017-Aug-22 16:29N 34°04' E 029°26'25811.4
2017-Aug-21 17:50N 37°14' E 025°51'310.8
2017-Aug-21 17:31N 37°17' E 025°49'611.5
2017-Aug-21 17:00N 37°23' E 025°47'611.6
2017-Aug-21 16:30N 37°28' E 025°45'611.7
2017-Aug-21 16:00N 37°34' E 025°44'611.6
2017-Aug-21 15:31N 37°40' E 025°42'611.4
2017-Aug-21 15:01N 37°45' E 025°42'12311.4
2017-Aug-21 04:13N 39°48' E 025°45'311.7
2017-Aug-21 04:00N 39°50' E 025°46'612.3
2017-Aug-21 03:29N 39°55' E 025°52'811.9
2017-Aug-21 02:48N 40°01' E 025°59'411.5
2017-Aug-21 02:28N 40°01' E 026°04'511.4
2017-Aug-21 02:00N 40°02' E 026°11'13 9.5
2017-Aug-21 00:39N 40°11' E 026°23'2210.3
2017-Aug-20 22:32N 40°25' E 026°44'0 5.1
2017-Aug-20 22:30N 40°26' E 026°44'141 3.4
2017-Aug-19 04:36N 41°27' E 029°32'0 1.3
2017-Aug-19 04:30N 41°27' E 029°32'2 1.2
2017-Aug-19 02:32N 41°28' E 029°29'0 1.3
2017-Aug-19 02:30N 41°28' E 029°29'5 1.0
2017-Aug-18 21:29N 41°30' E 029°23'0 0.6
2017-Aug-18 20:56N 41°30' E 029°23'0 0.7
2017-Aug-18 20:27N 41°31' E 029°23'0 0.7
2017-Aug-18 20:00N 41°31' E 029°22'0 0.4
2017-Aug-18 19:30N 41°31' E 029°22'0 0.4
2017-Aug-18 19:00N 41°31' E 029°22'2 4.7
2017-Aug-18 18:30N 41°29' E 029°22'7 9.2
2017-Aug-18 17:47N 41°24' E 029°28'2 8.3
2017-Aug-18 17:30N 41°23' E 029°31'0 0.6
2017-Aug-18 16:55N 41°23' E 029°31'1 1.1
2017-Aug-18 16:05N 41°23' E 029°30'0 1.1
2017-Aug-18 15:59N 41°23' E 029°29'6 1.1
2017-Aug-18 10:41N 41°27' E 029°23'0 1.1
2017-Aug-18 10:30N 41°27' E 029°23'1 1.0
2017-Aug-18 09:09N 41°28' E 029°21'0 1.0
2017-Aug-18 09:00N 41°28' E 029°21'4 1.0
2017-Aug-18 05:12N 41°30' E 029°17'0 0.9
2017-Aug-18 05:00N 41°30' E 029°17'1 0.9
2017-Aug-18 03:25N 41°31' E 029°16'0 0.7
2017-Aug-18 02:59N 41°32' E 029°16'1 1.4
2017-Aug-18 02:29N 41°32' E 029°15'30 9.8
2017-Aug-17 23:27N 41°46' E 029°50'511.8
2017-Aug-17 23:00N 41°49' E 029°56'611.7
2017-Aug-17 22:30N 41°51' E 030°03'611.7
2017-Aug-17 22:00N 41°53' E 030°10'611.6
2017-Aug-17 21:30N 41°56' E 030°17'611.5
2017-Aug-17 21:00N 41°59' E 030°24'611.6
2017-Aug-17 20:30N 42°01' E 030°31'2011.7
2017-Aug-17 18:50N 42°10' E 030°55'1111.7
2017-Aug-17 17:54N 42°14' E 031°08'511.7
2017-Aug-17 17:30N 42°16' E 031°14'711.7
2017-Aug-17 16:54N 42°19' E 031°23'511.7
2017-Aug-17 16:30N 42°21' E 031°28'611.8
2017-Aug-17 16:00N 42°24' E 031°35'611.7
2017-Aug-17 15:29N 42°27' E 031°43'611.6
2017-Aug-17 15:00N 42°29' E 031°50'611.6
2017-Aug-17 14:30N 42°31' E 031°57'11711.4
2017-Aug-17 04:12N 43°22' E 034°22'211.7
2017-Aug-17 04:00N 43°23' E 034°25'13311.3
2017-Aug-16 16:15N 44°21' E 037°11'311.4
2017-Aug-16 15:59N 44°22' E 037°14'511.1
2017-Aug-16 15:30N 44°25' E 037°21'611.2
2017-Aug-16 15:00N 44°27' E 037°28'611.4
2017-Aug-16 14:30N 44°30' E 037°35'611.5
2017-Aug-16 14:00N 44°32' E 037°42'611.5
2017-Aug-16 13:30N 44°35' E 037°50'3 6.7
2017-Aug-16 13:00N 44°36' E 037°54'0 0.1
2017-Aug-16 12:30N 44°36' E 037°54'0 0.0
2017-Aug-16 12:00N 44°36' E 037°54'0 0.0
2017-Aug-16 11:30N 44°36' E 037°54'0 0.1
2017-Aug-16 11:00N 44°36' E 037°54'0 0.0
2017-Aug-16 10:30N 44°36' E 037°54'0 0.0
2017-Aug-16 10:00N 44°36' E 037°54'0 0.1
2017-Aug-16 09:30N 44°36' E 037°54'0 0.0
2017-Aug-16 09:00N 44°36' E 037°54'0 0.0
2017-Aug-16 08:30N 44°36' E 037°54'0 0.0
2017-Aug-16 08:00N 44°36' E 037°54'0 0.0
2017-Aug-16 07:30N 44°36' E 037°54'0 0.0
2017-Aug-16 07:00N 44°36' E 037°54'0 0.0
2017-Aug-16 06:30N 44°36' E 037°54'0 0.0
2017-Aug-16 06:00N 44°36' E 037°54'0 0.0
2017-Aug-16 05:30N 44°36' E 037°54'0 0.0
2017-Aug-16 05:00N 44°36' E 037°54'0 0.0
2017-Aug-16 04:30N 44°36' E 037°54'0 0.0
2017-Aug-16 04:00N 44°36' E 037°54'0 0.1
2017-Aug-16 03:30N 44°36' E 037°54'0 0.1
2017-Aug-16 03:00N 44°36' E 037°54'0 0.0
2017-Aug-16 02:30N 44°36' E 037°54'0 0.0
2017-Aug-16 02:00N 44°36' E 037°54'0 0.0
2017-Aug-16 01:30N 44°36' E 037°54'0 0.0
2017-Aug-16 00:57N 44°36' E 037°54'0 0.1
2017-Aug-16 00:27N 44°36' E 037°54'0 0.0
2017-Aug-16 00:00N 44°36' E 037°54'0 0.0
2017-Aug-15 23:30N 44°36' E 037°54'0 0.1
2017-Aug-15 23:00N 44°36' E 037°54'0 0.0
2017-Aug-15 22:30N 44°36' E 037°54'0 0.0
2017-Aug-15 22:00N 44°36' E 037°54'0 0.0
2017-Aug-15 21:30N 44°36' E 037°54'0 0.0
2017-Aug-15 21:00N 44°36' E 037°54'0 0.0
2017-Aug-15 20:30N 44°36' E 037°54'0 0.0
2017-Aug-15 20:00N 44°36' E 037°54'0 0.2
2017-Aug-15 19:30N 44°36' E 037°54'0 0.2
2017-Aug-15 19:00N 44°36' E 037°54'0 0.1
2017-Aug-15 18:30N 44°36' E 037°54'0 0.1
2017-Aug-15 18:00N 44°36' E 037°54'0 0.0
2017-Aug-15 17:30N 44°36' E 037°54'0 0.1
2017-Aug-15 17:00N 44°36' E 037°54'0 0.0
2017-Aug-15 16:30N 44°36' E 037°54'0 0.0
2017-Aug-15 16:00N 44°36' E 037°54'0 0.1
2017-Aug-15 15:30N 44°36' E 037°54'0 0.0
2017-Aug-15 15:00N 44°36' E 037°54'0 0.1
2017-Aug-15 14:24N 44°36' E 037°54'0 0.2
2017-Aug-15 14:00N 44°36' E 037°54'2 3.3
2017-Aug-15 13:30N 44°37' E 037°52'3 5.3
2017-Aug-15 13:00N 44°39' E 037°51'4 8.4
2017-Aug-15 12:30N 44°43' E 037°48'1 2.1
2017-Aug-15 11:59N 44°44' E 037°47'0 0.0
2017-Aug-15 11:29N 44°44' E 037°47'0 0.0
2017-Aug-15 10:59N 44°44' E 037°47'0 0.0
2017-Aug-15 10:29N 44°44' E 037°47'0 0.0
2017-Aug-15 09:59N 44°44' E 037°47'0 0.0
2017-Aug-15 09:29N 44°44' E 037°47'0 0.0
2017-Aug-15 08:59N 44°44' E 037°47'0 0.0
2017-Aug-15 08:29N 44°44' E 037°47'0 0.0
2017-Aug-15 07:59N 44°44' E 037°47'0 0.0
2017-Aug-15 07:20N 44°44' E 037°47'0 0.0
2017-Aug-15 06:59N 44°44' E 037°47'0 0.0
2017-Aug-15 06:29N 44°44' E 037°47'0 0.0
2017-Aug-15 05:59N 44°44' E 037°47'0 0.0
2017-Aug-15 05:29N 44°44' E 037°47'0 0.0
2017-Aug-15 04:59N 44°44' E 037°47'0 0.0
2017-Aug-15 04:29N 44°44' E 037°47'0 0.0
2017-Aug-15 03:59N 44°44' E 037°47'0 0.0
2017-Aug-15 03:29N 44°44' E 037°47'0 0.0
2017-Aug-15 02:59N 44°44' E 037°47'0 0.0
2017-Aug-15 02:29N 44°44' E 037°47'0 0.0
2017-Aug-15 01:59N 44°44' E 037°47'0 0.0
2017-Aug-15 01:29N 44°44' E 037°47'0 0.0
2017-Aug-15 00:59N 44°44' E 037°47'0 0.0
2017-Aug-15 00:29N 44°44' E 037°47'0 0.0
2017-Aug-14 23:59N 44°44' E 037°47'0 0.0
2017-Aug-14 23:29N 44°44' E 037°47'0 0.0
2017-Aug-14 22:59N 44°44' E 037°47'0 0.0
2017-Aug-14 22:29N 44°44' E 037°47'  
Track history (hours):
 
Tides and Currents Weather Stations Pressure Air Temp Water Temp Dewpoint Dewpoint Depression Visibility Wind Speed Wind Dir Waves Ship Positions

Arietta A

Last reported at 2017-Aug-24 22:15 UTC. Time now 2017-Sep-25 11:32 UTC.
Position N 28°59' E 032°48'.
Warning: this ship's position is 31 days out of date.

Length 189 m; draft 12.9 m.

Type: Cargo ship. MMSI: 636014460.

Date/timePositionNaut miles runAvg speedWind from/ knotsBaromVisibWave heightAir tempDewpointWater temp
2017-Aug-24 22:15N 28°59' E 032°48'313.3
2017-Aug-24 22:00N 29°03' E 032°47'138 6.0
2017-Aug-23 22:56N 31°19' E 032°22'7 0.9
2017-Aug-23 15:00N 31°24' E 032°18'204 9.5
2017-Aug-22 17:25N 33°56' E 029°34'511.6
2017-Aug-22 17:00N 33°59' E 029°31'611.5
2017-Aug-22 16:29N 34°04' E 029°26'25811.4
2017-Aug-21 17:50N 37°14' E 025°51'310.8
2017-Aug-21 17:31N 37°17' E 025°49'611.5
2017-Aug-21 17:00N 37°23' E 025°47'611.6
2017-Aug-21 16:30N 37°28' E 025°45'611.7
2017-Aug-21 16:00N 37°34' E 025°44'611.6
2017-Aug-21 15:31N 37°40' E 025°42'611.4
2017-Aug-21 15:01N 37°45' E 025°42'12311.4
2017-Aug-21 04:13N 39°48' E 025°45'311.7
2017-Aug-21 04:00N 39°50' E 025°46'612.3
2017-Aug-21 03:29N 39°55' E 025°52'811.9
2017-Aug-21 02:48N 40°01' E 025°59'411.5
2017-Aug-21 02:28N 40°01' E 026°04'511.4
2017-Aug-21 02:00N 40°02' E 026°11'13 9.5
2017-Aug-21 00:39N 40°11' E 026°23'2210.3
2017-Aug-20 22:32N 40°25' E 026°44'0 5.1
2017-Aug-20 22:30N 40°26' E 026°44'141 3.4
2017-Aug-19 04:36N 41°27' E 029°32'0 1.3
2017-Aug-19 04:30N 41°27' E 029°32'2 1.2
2017-Aug-19 02:32N 41°28' E 029°29'0 1.3
2017-Aug-19 02:30N 41°28' E 029°29'5 1.0
2017-Aug-18 21:29N 41°30' E 029°23'0 0.6
2017-Aug-18 20:56N 41°30' E 029°23'0 0.7
2017-Aug-18 20:27N 41°31' E 029°23'0 0.7
2017-Aug-18 20:00N 41°31' E 029°22'0 0.4
2017-Aug-18 19:30N 41°31' E 029°22'0 0.4
2017-Aug-18 19:00N 41°31' E 029°22'2 4.7
2017-Aug-18 18:30N 41°29' E 029°22'7 9.2
2017-Aug-18 17:47N 41°24' E 029°28'2 8.3
2017-Aug-18 17:30N 41°23' E 029°31'0 0.6
2017-Aug-18 16:55N 41°23' E 029°31'1 1.1
2017-Aug-18 16:05N 41°23' E 029°30'0 1.1
2017-Aug-18 15:59N 41°23' E 029°29'6 1.1
2017-Aug-18 10:41N 41°27' E 029°23'0 1.1
2017-Aug-18 10:30N 41°27' E 029°23'1 1.0
2017-Aug-18 09:09N 41°28' E 029°21'0 1.0
2017-Aug-18 09:00N 41°28' E 029°21'4 1.0
2017-Aug-18 05:12N 41°30' E 029°17'0 0.9
2017-Aug-18 05:00N 41°30' E 029°17'1 0.9
2017-Aug-18 03:25N 41°31' E 029°16'0 0.7
2017-Aug-18 02:59N 41°32' E 029°16'1 1.4
2017-Aug-18 02:29N 41°32' E 029°15'30 9.8
2017-Aug-17 23:27N 41°46' E 029°50'511.8
2017-Aug-17 23:00N 41°49' E 029°56'611.7
2017-Aug-17 22:30N 41°51' E 030°03'611.7
2017-Aug-17 22:00N 41°53' E 030°10'611.6
2017-Aug-17 21:30N 41°56' E 030°17'611.5
2017-Aug-17 21:00N 41°59' E 030°24'611.6
2017-Aug-17 20:30N 42°01' E 030°31'2011.7
2017-Aug-17 18:50N 42°10' E 030°55'1111.7
2017-Aug-17 17:54N 42°14' E 031°08'511.7
2017-Aug-17 17:30N 42°16' E 031°14'711.7
2017-Aug-17 16:54N 42°19' E 031°23'511.7
2017-Aug-17 16:30N 42°21' E 031°28'611.8
2017-Aug-17 16:00N 42°24' E 031°35'611.7
2017-Aug-17 15:29N 42°27' E 031°43'611.6
2017-Aug-17 15:00N 42°29' E 031°50'611.6
2017-Aug-17 14:30N 42°31' E 031°57'11711.4
2017-Aug-17 04:12N 43°22' E 034°22'211.7
2017-Aug-17 04:00N 43°23' E 034°25'13311.3
2017-Aug-16 16:15N 44°21' E 037°11'311.4
2017-Aug-16 15:59N 44°22' E 037°14'511.1
2017-Aug-16 15:30N 44°25' E 037°21'611.2
2017-Aug-16 15:00N 44°27' E 037°28'611.4
2017-Aug-16 14:30N 44°30' E 037°35'611.5
2017-Aug-16 14:00N 44°32' E 037°42'611.5
2017-Aug-16 13:30N 44°35' E 037°50'3 6.7
2017-Aug-16 13:00N 44°36' E 037°54'0 0.1
2017-Aug-16 12:30N 44°36' E 037°54'0 0.0
2017-Aug-16 12:00N 44°36' E 037°54'0 0.0
2017-Aug-16 11:30N 44°36' E 037°54'0 0.1
2017-Aug-16 11:00N 44°36' E 037°54'0 0.0
2017-Aug-16 10:30N 44°36' E 037°54'0 0.0
2017-Aug-16 10:00N 44°36' E 037°54'0 0.1
2017-Aug-16 09:30N 44°36' E 037°54'0 0.0
2017-Aug-16 09:00N 44°36' E 037°54'0 0.0
2017-Aug-16 08:30N 44°36' E 037°54'0 0.0
2017-Aug-16 08:00N 44°36' E 037°54'0 0.0
2017-Aug-16 07:30N 44°36' E 037°54'0 0.0
2017-Aug-16 07:00N 44°36' E 037°54'0 0.0
2017-Aug-16 06:30N 44°36' E 037°54'0 0.0
2017-Aug-16 06:00N 44°36' E 037°54'0 0.0
2017-Aug-16 05:30N 44°36' E 037°54'0 0.0
2017-Aug-16 05:00N 44°36' E 037°54'0 0.0
2017-Aug-16 04:30N 44°36' E 037°54'0 0.0
2017-Aug-16 04:00N 44°36' E 037°54'0 0.1
2017-Aug-16 03:30N 44°36' E 037°54'0 0.1
2017-Aug-16 03:00N 44°36' E 037°54'0 0.0
2017-Aug-16 02:30N 44°36' E 037°54'0 0.0
2017-Aug-16 02:00N 44°36' E 037°54'0 0.0
2017-Aug-16 01:30N 44°36' E 037°54'0 0.0
2017-Aug-16 00:57N 44°36' E 037°54'0 0.1
2017-Aug-16 00:27N 44°36' E 037°54'0 0.0
2017-Aug-16 00:00N 44°36' E 037°54'0 0.0
2017-Aug-15 23:30N 44°36' E 037°54'0 0.1
2017-Aug-15 23:00N 44°36' E 037°54'0 0.0
2017-Aug-15 22:30N 44°36' E 037°54'0 0.0
2017-Aug-15 22:00N 44°36' E 037°54'0 0.0
2017-Aug-15 21:30N 44°36' E 037°54'0 0.0
2017-Aug-15 21:00N 44°36' E 037°54'0 0.0
2017-Aug-15 20:30N 44°36' E 037°54'0 0.0
2017-Aug-15 20:00N 44°36' E 037°54'0 0.2
2017-Aug-15 19:30N 44°36' E 037°54'0 0.2
2017-Aug-15 19:00N 44°36' E 037°54'0 0.1
2017-Aug-15 18:30N 44°36' E 037°54'0 0.1
2017-Aug-15 18:00N 44°36' E 037°54'0 0.0
2017-Aug-15 17:30N 44°36' E 037°54'0 0.1
2017-Aug-15 17:00N 44°36' E 037°54'0 0.0
2017-Aug-15 16:30N 44°36' E 037°54'0 0.0
2017-Aug-15 16:00N 44°36' E 037°54'0 0.1
2017-Aug-15 15:30N 44°36' E 037°54'0 0.0
2017-Aug-15 15:00N 44°36' E 037°54'0 0.1
2017-Aug-15 14:24N 44°36' E 037°54'0 0.2
2017-Aug-15 14:00N 44°36' E 037°54'2 3.3
2017-Aug-15 13:30N 44°37' E 037°52'3 5.3
2017-Aug-15 13:00N 44°39' E 037°51'4 8.4
2017-Aug-15 12:30N 44°43' E 037°48'1 2.1
2017-Aug-15 11:59N 44°44' E 037°47'0 0.0
2017-Aug-15 11:29N 44°44' E 037°47'0 0.0
2017-Aug-15 10:59N 44°44' E 037°47'0 0.0
2017-Aug-15 10:29N 44°44' E 037°47'0 0.0
2017-Aug-15 09:59N 44°44' E 037°47'0 0.0
2017-Aug-15 09:29N 44°44' E 037°47'0 0.0
2017-Aug-15 08:59N 44°44' E 037°47'0 0.0
2017-Aug-15 08:29N 44°44' E 037°47'0 0.0
2017-Aug-15 07:59N 44°44' E 037°47'0 0.0
2017-Aug-15 07:20N 44°44' E 037°47'0 0.0
2017-Aug-15 06:59N 44°44' E 037°47'0 0.0
2017-Aug-15 06:29N 44°44' E 037°47'0 0.0
2017-Aug-15 05:59N 44°44' E 037°47'0 0.0
2017-Aug-15 05:29N 44°44' E 037°47'0 0.0
2017-Aug-15 04:59N 44°44' E 037°47'0 0.0
2017-Aug-15 04:29N 44°44' E 037°47'0 0.0
2017-Aug-15 03:59N 44°44' E 037°47'0 0.0
2017-Aug-15 03:29N 44°44' E 037°47'0 0.0
2017-Aug-15 02:59N 44°44' E 037°47'0 0.0
2017-Aug-15 02:29N 44°44' E 037°47'0 0.0
2017-Aug-15 01:59N 44°44' E 037°47'0 0.0
2017-Aug-15 01:29N 44°44' E 037°47'0 0.0
2017-Aug-15 00:59N 44°44' E 037°47'0 0.0
2017-Aug-15 00:29N 44°44' E 037°47'0 0.0
2017-Aug-14 23:59N 44°44' E 037°47'0 0.0
2017-Aug-14 23:29N 44°44' E 037°47'0 0.0
2017-Aug-14 22:59N 44°44' E 037°47'0 0.0
2017-Aug-14 22:29N 44°44' E 037°47'  

Dump ship's entire track history